Paradas, Spain
Current Conditions -  °F | °C
As of 11:00 AM on Tuesday 21 Oct 2014 (Local Time) from LEMO Reporting Station
Clear Clear  
Wind Chill: 70°   Ceiling: Unl
Heat Index: 70°   Visibility: 6mi
Dew Point: 55°   Wind: 7mph
Humidity: 60%   Direction: 30°NNE
Pressure: 30.21"   Gusts: NA
Location:  37.29°N, 5.5°W
Report Text: LEMO 210900Z 03006KT 360V080 9000 NSC 21/13 Q1023 NOSIG
Loading
Personal Weather Stations






























Interactive Weather Map
Tropical Storm Tracking
New forecast layout! Learn more

10-Day Weather Forecast

Advertisements
Track Severe Weather on mobile